Open Full Screen Window  High Contrast Mode
Wind Gusting 00 knots
08
February 26, 2017 10:19 PM CST
Weather Information
Wind Direction
  190 °
Wind Speed
  08 kt (9 mph)
Wind Gust
  00 kt (0 mph)
Altimeter
30.15 in
Visibility
10 SM
Temperature
03° C
37° F
Dewpoint
-11° C
12° F
Humidity
35%
Sky Condition
Overcast @ 7,000 ft
VFR

METAR KAXV 270419Z AUTO 19008KT 10SM OVC070 03/M11 A3015 RMK AO2

*Background is not an actual portrayal of the airport.